PILOTS ONLINE: 305    ATC ONLINE: 46

FGSL

Malabo Airport

Location

IATA SSG
City Malabo
Country  Equatorial Guinea
Latitude 3° 45' 18" N
Longitude 8° 42' 31" E
Elevation 76 ft
Type Medium Airport

Map

Weather

METAR
2014/09/24 02:00
FGSL 240200Z 24005KT 9999 TS SCT008 FEW018CB 24/23 Q1012 NOSIG
TAF
2014/09/23 18:00
TAF FGSL 231700Z 2318/2424 24008KT 8000 BKN010 
      TEMPO 2320/2406 3000 TSRA BKN010 FEW016CB 
      TEMPO 2410/2416 4000 RADZ BKN008 FEW018CB

Runways

05/23 9647 ft / 151 ft

Outbound flights

Callsign Flying to Pilot ATD/STD ETA Aircraft

Inbound flights

Callsign Flying from Pilot ATD ETA Aircraft